sensor_id;sensor_type;location;lat;lon;timestamp;P1;durP1;ratioP1;P2;durP2;ratioP2
20846;SDS011;10584;50.854;12.902;2022-12-18T00:01:57;53.53;;;18.20;;
20846;SDS011;10584;50.854;12.902;2022-12-18T00:07:01;52.20;;;17.20;;
20846;SDS011;10584;50.854;12.902;2022-12-18T00:12:04;70.00;;;19.63;;
20846;SDS011;10584;50.854;12.902;2022-12-18T00:17:16;59.20;;;17.63;;
20846;SDS011;10584;50.854;12.902;2022-12-18T00:22:19;57.07;;;17.93;;
20846;SDS011;10584;50.854;12.902;2022-12-18T00:27:22;54.07;;;17.03;;
20846;SDS011;10584;50.854;12.902;2022-12-18T00:32:25;57.30;;;17.77;;
20846;SDS011;10584;50.854;12.902;2022-12-18T00:37:29;62.53;;;18.43;;
20846;SDS011;10584;50.854;12.902;2022-12-18T00:42:32;51.03;;;18.43;;
20846;SDS011;10584;50.854;12.902;2022-12-18T00:47:53;48.23;;;16.37;;
20846;SDS011;10584;50.854;12.902;2022-12-18T00:52:57;56.93;;;18.13;;
20846;SDS011;10584;50.854;12.902;2022-12-18T00:58:00;55.03;;;17.23;;
20846;SDS011;10584;50.854;12.902;2022-12-18T01:03:03;49.93;;;17.00;;
20846;SDS011;10584;50.854;12.902;2022-12-18T01:08:07;70.00;;;17.23;;
20846;SDS011;10584;50.854;12.902;2022-12-18T01:13:10;60.70;;;17.27;;
20846;SDS011;10584;50.854;12.902;2022-12-18T01:18:13;50.23;;;16.87;;
20846;SDS011;10584;50.854;12.902;2022-12-18T01:23:16;54.37;;;17.73;;
20846;SDS011;10584;50.854;12.902;2022-12-18T01:28:19;63.00;;;18.60;;
20846;SDS011;10584;50.854;12.902;2022-12-18T01:33:22;45.53;;;15.60;;
20846;SDS011;10584;50.854;12.902;2022-12-18T01:38:25;42.43;;;16.03;;
20846;SDS011;10584;50.854;12.902;2022-12-18T01:43:43;48.37;;;16.23;;
20846;SDS011;10584;50.854;12.902;2022-12-18T01:48:52;52.50;;;16.30;;
20846;SDS011;10584;50.854;12.902;2022-12-18T01:54:02;39.77;;;14.87;;
20846;SDS011;10584;50.854;12.902;2022-12-18T01:59:05;47.27;;;15.33;;
20846;SDS011;10584;50.854;12.902;2022-12-18T02:04:44;43.00;;;13.83;;
20846;SDS011;10584;50.854;12.902;2022-12-18T02:09:47;39.83;;;14.10;;
20846;SDS011;10584;50.854;12.902;2022-12-18T02:20:47;46.07;;;14.30;;
20846;SDS011;10584;50.854;12.902;2022-12-18T02:31:31;46.87;;;15.90;;
20846;SDS011;10584;50.854;12.902;2022-12-18T02:36:40;43.43;;;15.33;;
20846;SDS011;10584;50.854;12.902;2022-12-18T02:41:47;41.80;;;13.17;;
20846;SDS011;10584;50.854;12.902;2022-12-18T02:46:52;44.37;;;13.90;;
20846;SDS011;10584;50.854;12.902;2022-12-18T02:52:01;34.53;;;12.20;;
20846;SDS011;10584;50.854;12.902;2022-12-18T02:57:24;39.00;;;14.67;;
20846;SDS011;10584;50.854;12.902;2022-12-18T03:02:54;40.47;;;13.37;;
20846;SDS011;10584;50.854;12.902;2022-12-18T03:08:41;35.37;;;11.93;;
20846;SDS011;10584;50.854;12.902;2022-12-18T03:13:50;48.47;;;13.83;;
20846;SDS011;10584;50.854;12.902;2022-12-18T03:18:58;36.70;;;13.17;;
20846;SDS011;10584;50.854;12.902;2022-12-18T03:24:07;39.57;;;12.97;;
20846;SDS011;10584;50.854;12.902;2022-12-18T03:29:14;37.53;;;12.47;;
20846;SDS011;10584;50.854;12.902;2022-12-18T03:34:40;27.97;;;11.17;;
20846;SDS011;10584;50.854;12.902;2022-12-18T03:39:48;41.10;;;13.20;;
20846;SDS011;10584;50.854;12.902;2022-12-18T03:44:57;37.57;;;12.67;;
20846;SDS011;10584;50.854;12.902;2022-12-18T03:50:11;40.27;;;12.27;;
20846;SDS011;10584;50.854;12.902;2022-12-18T03:55:32;34.40;;;12.03;;
20846;SDS011;10584;50.854;12.902;2022-12-18T04:00:40;30.30;;;11.63;;
20846;SDS011;10584;50.854;12.902;2022-12-18T04:05:45;28.60;;;10.67;;
20846;SDS011;10584;50.854;12.902;2022-12-18T04:10:55;30.93;;;11.10;;
20846;SDS011;10584;50.854;12.902;2022-12-18T04:15:59;40.90;;;11.27;;
20846;SDS011;10584;50.854;12.902;2022-12-18T04:21:03;30.00;;;9.97;;
20846;SDS011;10584;50.854;12.902;2022-12-18T04:26:07;24.80;;;9.17;;
20846;SDS011;10584;50.854;12.902;2022-12-18T04:31:19;28.67;;;9.30;;
20846;SDS011;10584;50.854;12.902;2022-12-18T04:36:24;30.00;;;9.77;;
20846;SDS011;10584;50.854;12.902;2022-12-18T04:41:27;31.23;;;9.83;;
20846;SDS011;10584;50.854;12.902;2022-12-18T04:46:32;25.40;;;9.10;;
20846;SDS011;10584;50.854;12.902;2022-12-18T04:51:38;29.27;;;9.10;;
20846;SDS011;10584;50.854;12.902;2022-12-18T04:56:41;29.47;;;8.60;;
20846;SDS011;10584;50.854;12.902;2022-12-18T05:01:44;27.00;;;9.63;;
20846;SDS011;10584;50.854;12.902;2022-12-18T05:06:48;29.53;;;9.90;;
20846;SDS011;10584;50.854;12.902;2022-12-18T05:11:51;24.40;;;8.77;;
20846;SDS011;10584;50.854;12.902;2022-12-18T05:16:54;27.77;;;9.23;;
20846;SDS011;10584;50.854;12.902;2022-12-18T05:22:03;26.63;;;9.00;;
20846;SDS011;10584;50.854;12.902;2022-12-18T05:27:09;28.43;;;8.97;;
20846;SDS011;10584;50.854;12.902;2022-12-18T05:32:12;27.30;;;8.40;;
20846;SDS011;10584;50.854;12.902;2022-12-18T05:37:15;21.77;;;8.30;;
20846;SDS011;10584;50.854;12.902;2022-12-18T05:42:18;32.23;;;9.47;;
20846;SDS011;10584;50.854;12.902;2022-12-18T05:47:22;25.07;;;8.17;;
20846;SDS011;10584;50.854;12.902;2022-12-18T05:52:25;22.40;;;8.30;;
20846;SDS011;10584;50.854;12.902;2022-12-18T05:57:28;21.80;;;8.77;;
20846;SDS011;10584;50.854;12.902;2022-12-18T06:02:31;27.27;;;10.03;;
20846;SDS011;10584;50.854;12.902;2022-12-18T06:07:34;26.87;;;8.83;;
20846;SDS011;10584;50.854;12.902;2022-12-18T06:12:39;30.80;;;9.13;;
20846;SDS011;10584;50.854;12.902;2022-12-18T06:17:42;21.00;;;8.43;;
20846;SDS011;10584;50.854;12.902;2022-12-18T06:22:47;27.17;;;8.47;;
20846;SDS011;10584;50.854;12.902;2022-12-18T06:27:50;22.93;;;8.20;;
20846;SDS011;10584;50.854;12.902;2022-12-18T06:32:53;28.03;;;8.97;;
20846;SDS011;10584;50.854;12.902;2022-12-18T06:37:57;23.57;;;8.07;;
20846;SDS011;10584;50.854;12.902;2022-12-18T06:43:02;23.57;;;8.17;;
20846;SDS011;10584;50.854;12.902;2022-12-18T06:48:05;25.83;;;9.07;;
20846;SDS011;10584;50.854;12.902;2022-12-18T06:53:08;22.03;;;8.23;;
20846;SDS011;10584;50.854;12.902;2022-12-18T06:58:11;22.33;;;8.90;;
20846;SDS011;10584;50.854;12.902;2022-12-18T07:03:14;30.87;;;10.03;;
20846;SDS011;10584;50.854;12.902;2022-12-18T07:08:17;19.70;;;7.60;;
20846;SDS011;10584;50.854;12.902;2022-12-18T07:13:20;24.20;;;8.90;;
20846;SDS011;10584;50.854;12.902;2022-12-18T07:18:24;26.97;;;7.77;;
20846;SDS011;10584;50.854;12.902;2022-12-18T07:23:27;20.00;;;7.87;;
20846;SDS011;10584;50.854;12.902;2022-12-18T07:28:30;24.23;;;8.40;;
20846;SDS011;10584;50.854;12.902;2022-12-18T07:33:34;25.33;;;8.83;;
20846;SDS011;10584;50.854;12.902;2022-12-18T07:38:38;25.50;;;9.30;;
20846;SDS011;10584;50.854;12.902;2022-12-18T07:43:41;28.80;;;9.17;;
20846;SDS011;10584;50.854;12.902;2022-12-18T07:48:45;27.23;;;9.07;;
20846;SDS011;10584;50.854;12.902;2022-12-18T07:53:50;29.90;;;9.07;;
20846;SDS011;10584;50.854;12.902;2022-12-18T07:58:53;27.57;;;9.33;;
20846;SDS011;10584;50.854;12.902;2022-12-18T08:03:57;22.97;;;8.63;;
20846;SDS011;10584;50.854;12.902;2022-12-18T08:09:00;27.30;;;8.83;;
20846;SDS011;10584;50.854;12.902;2022-12-18T08:14:04;26.80;;;8.07;;
20846;SDS011;10584;50.854;12.902;2022-12-18T08:19:07;19.67;;;7.63;;
20846;SDS011;10584;50.854;12.902;2022-12-18T08:24:10;21.43;;;6.97;;
20846;SDS011;10584;50.854;12.902;2022-12-18T08:29:13;20.37;;;7.27;;
20846;SDS011;10584;50.854;12.902;2022-12-18T08:34:22;23.60;;;7.57;;
20846;SDS011;10584;50.854;12.902;2022-12-18T08:39:25;17.87;;;6.90;;
20846;SDS011;10584;50.854;12.902;2022-12-18T08:44:28;17.93;;;5.73;;
20846;SDS011;10584;50.854;12.902;2022-12-18T08:49:40;23.47;;;6.00;;
20846;SDS011;10584;50.854;12.902;2022-12-18T08:54:43;15.70;;;5.33;;
20846;SDS011;10584;50.854;12.902;2022-12-18T08:59:46;15.53;;;6.27;;
20846;SDS011;10584;50.854;12.902;2022-12-18T09:04:50;17.13;;;6.90;;
20846;SDS011;10584;50.854;12.902;2022-12-18T09:09:58;19.10;;;6.13;;
20846;SDS011;10584;50.854;12.902;2022-12-18T09:15:01;20.00;;;5.27;;
20846;SDS011;10584;50.854;12.902;2022-12-18T09:20:04;18.17;;;6.70;;
20846;SDS011;10584;50.854;12.902;2022-12-18T09:25:10;18.30;;;7.47;;
20846;SDS011;10584;50.854;12.902;2022-12-18T09:30:13;23.63;;;8.20;;
20846;SDS011;10584;50.854;12.902;2022-12-18T09:35:16;30.60;;;10.20;;
20846;SDS011;10584;50.854;12.902;2022-12-18T09:40:21;30.83;;;10.97;;
20846;SDS011;10584;50.854;12.902;2022-12-18T09:45:27;40.33;;;13.73;;
20846;SDS011;10584;50.854;12.902;2022-12-18T09:50:36;41.23;;;14.23;;
20846;SDS011;10584;50.854;12.902;2022-12-18T09:55:41;33.77;;;12.77;;
20846;SDS011;10584;50.854;12.902;2022-12-18T10:00:48;31.07;;;11.17;;
20846;SDS011;10584;50.854;12.902;2022-12-18T10:22:29;21.63;;;9.20;;
20846;SDS011;10584;50.854;12.902;2022-12-18T10:27:44;26.07;;;9.77;;
20846;SDS011;10584;50.854;12.902;2022-12-18T10:32:48;21.77;;;8.57;;
20846;SDS011;10584;50.854;12.902;2022-12-18T10:53:51;14.20;;;4.93;;
20846;SDS011;10584;50.854;12.902;2022-12-18T11:04:09;16.30;;;6.73;;
20846;SDS011;10584;50.854;12.902;2022-12-18T11:09:36;15.40;;;6.67;;
20846;SDS011;10584;50.854;12.902;2022-12-18T11:20:23;17.67;;;6.67;;
20846;SDS011;10584;50.854;12.902;2022-12-18T11:25:29;16.73;;;7.13;;
20846;SDS011;10584;50.854;12.902;2022-12-18T11:30:36;14.80;;;5.27;;
20846;SDS011;10584;50.854;12.902;2022-12-18T11:40:54;15.90;;;6.17;;
20846;SDS011;10584;50.854;12.902;2022-12-18T11:46:08;11.47;;;5.03;;
20846;SDS011;10584;50.854;12.902;2022-12-18T11:51:23;25.10;;;8.83;;
20846;SDS011;10584;50.854;12.902;2022-12-18T12:07:48;12.47;;;5.10;;
20846;SDS011;10584;50.854;12.902;2022-12-18T12:13:23;11.73;;;4.23;;
20846;SDS011;10584;50.854;12.902;2022-12-18T12:25:07;11.20;;;5.30;;
20846;SDS011;10584;50.854;12.902;2022-12-18T12:42:58;13.33;;;5.70;;
20846;SDS011;10584;50.854;12.902;2022-12-18T12:48:23;14.77;;;5.00;;
20846;SDS011;10584;50.854;12.902;2022-12-18T12:53:43;11.37;;;3.50;;
20846;SDS011;10584;50.854;12.902;2022-12-18T12:59:12;11.93;;;4.17;;
20846;SDS011;10584;50.854;12.902;2022-12-18T13:10:38;11.57;;;4.17;;
20846;SDS011;10584;50.854;12.902;2022-12-18T13:15:45;8.13;;;3.07;;
20846;SDS011;10584;50.854;12.902;2022-12-18T13:44:39;15.53;;;5.73;;
20846;SDS011;10584;50.854;12.902;2022-12-18T13:49:43;12.90;;;5.20;;
20846;SDS011;10584;50.854;12.902;2022-12-18T13:54:52;13.90;;;5.17;;
20846;SDS011;10584;50.854;12.902;2022-12-18T13:59:58;13.43;;;4.63;;
20846;SDS011;10584;50.854;12.902;2022-12-18T14:05:26;12.60;;;4.80;;
20846;SDS011;10584;50.854;12.902;2022-12-18T14:11:26;16.07;;;5.70;;
20846;SDS011;10584;50.854;12.902;2022-12-18T14:16:33;14.47;;;5.10;;
20846;SDS011;10584;50.854;12.902;2022-12-18T14:22:18;12.40;;;4.90;;
20846;SDS011;10584;50.854;12.902;2022-12-18T14:27:46;12.63;;;5.27;;
20846;SDS011;10584;50.854;12.902;2022-12-18T14:33:27;16.63;;;5.40;;
20846;SDS011;10584;50.854;12.902;2022-12-18T14:38:48;12.77;;;5.43;;
20846;SDS011;10584;50.854;12.902;2022-12-18T14:44:05;17.57;;;5.93;;
20846;SDS011;10584;50.854;12.902;2022-12-18T14:49:18;10.20;;;4.27;;
20846;SDS011;10584;50.854;12.902;2022-12-18T14:54:32;10.77;;;4.30;;
20846;SDS011;10584;50.854;12.902;2022-12-18T14:59:39;13.93;;;4.97;;
20846;SDS011;10584;50.854;12.902;2022-12-18T15:04:44;16.13;;;5.03;;
20846;SDS011;10584;50.854;12.902;2022-12-18T15:10:32;12.53;;;4.73;;
20846;SDS011;10584;50.854;12.902;2022-12-18T15:20:40;6.73;;;3.00;;
20846;SDS011;10584;50.854;12.902;2022-12-18T15:31:35;14.03;;;3.67;;
20846;SDS011;10584;50.854;12.902;2022-12-18T15:37:08;17.27;;;5.23;;
20846;SDS011;10584;50.854;12.902;2022-12-18T15:42:28;14.07;;;4.83;;
20846;SDS011;10584;50.854;12.902;2022-12-18T15:48:12;13.47;;;4.77;;
20846;SDS011;10584;50.854;12.902;2022-12-18T15:53:32;16.73;;;4.60;;
20846;SDS011;10584;50.854;12.902;2022-12-18T15:58:53;14.30;;;5.60;;
20846;SDS011;10584;50.854;12.902;2022-12-18T16:04:13;13.07;;;5.43;;
20846;SDS011;10584;50.854;12.902;2022-12-18T16:09:32;17.20;;;5.70;;
20846;SDS011;10584;50.854;12.902;2022-12-18T16:14:35;20.50;;;6.07;;
20846;SDS011;10584;50.854;12.902;2022-12-18T16:19:38;23.37;;;8.63;;
20846;SDS011;10584;50.854;12.902;2022-12-18T16:24:42;8.70;;;3.67;;
20846;SDS011;10584;50.854;12.902;2022-12-18T16:29:45;11.37;;;3.60;;
20846;SDS011;10584;50.854;12.902;2022-12-18T16:34:48;16.40;;;5.73;;
20846;SDS011;10584;50.854;12.902;2022-12-18T16:39:53;15.20;;;5.53;;
20846;SDS011;10584;50.854;12.902;2022-12-18T16:44:56;14.73;;;5.37;;
20846;SDS011;10584;50.854;12.902;2022-12-18T16:50:07;16.03;;;4.57;;
20846;SDS011;10584;50.854;12.902;2022-12-18T16:55:10;15.10;;;5.90;;
20846;SDS011;10584;50.854;12.902;2022-12-18T17:00:13;8.50;;;3.37;;
20846;SDS011;10584;50.854;12.902;2022-12-18T17:05:18;13.27;;;5.30;;
20846;SDS011;10584;50.854;12.902;2022-12-18T17:10:37;16.40;;;4.20;;
20846;SDS011;10584;50.854;12.902;2022-12-18T17:15:51;16.07;;;5.67;;
20846;SDS011;10584;50.854;12.902;2022-12-18T17:21:27;22.40;;;6.10;;
20846;SDS011;10584;50.854;12.902;2022-12-18T17:26:55;14.70;;;5.33;;
20846;SDS011;10584;50.854;12.902;2022-12-18T17:32:11;24.00;;;6.30;;
20846;SDS011;10584;50.854;12.902;2022-12-18T17:37:29;21.50;;;6.23;;
20846;SDS011;10584;50.854;12.902;2022-12-18T17:42:50;18.37;;;6.40;;
20846;SDS011;10584;50.854;12.902;2022-12-18T17:47:56;14.57;;;5.40;;
20846;SDS011;10584;50.854;12.902;2022-12-18T17:53:14;13.13;;;3.93;;
20846;SDS011;10584;50.854;12.902;2022-12-18T17:58:29;24.07;;;7.40;;
20846;SDS011;10584;50.854;12.902;2022-12-18T18:03:34;20.03;;;6.43;;
20846;SDS011;10584;50.854;12.902;2022-12-18T18:08:57;19.77;;;6.33;;
20846;SDS011;10584;50.854;12.902;2022-12-18T18:14:00;20.67;;;6.23;;
20846;SDS011;10584;50.854;12.902;2022-12-18T18:19:12;14.23;;;5.13;;
20846;SDS011;10584;50.854;12.902;2022-12-18T18:24:19;18.03;;;6.13;;
20846;SDS011;10584;50.854;12.902;2022-12-18T18:29:28;17.53;;;6.17;;
20846;SDS011;10584;50.854;12.902;2022-12-18T18:34:31;16.03;;;6.17;;
20846;SDS011;10584;50.854;12.902;2022-12-18T18:39:35;13.07;;;4.93;;
20846;SDS011;10584;50.854;12.902;2022-12-18T18:44:38;13.17;;;5.10;;
20846;SDS011;10584;50.854;12.902;2022-12-18T18:49:49;22.97;;;6.13;;
20846;SDS011;10584;50.854;12.902;2022-12-18T18:54:52;16.77;;;6.43;;
20846;SDS011;10584;50.854;12.902;2022-12-18T19:00:13;11.87;;;5.03;;
20846;SDS011;10584;50.854;12.902;2022-12-18T19:05:18;14.90;;;5.83;;
20846;SDS011;10584;50.854;12.902;2022-12-18T19:10:38;14.63;;;5.57;;
20846;SDS011;10584;50.854;12.902;2022-12-18T19:15:42;16.03;;;5.63;;
20846;SDS011;10584;50.854;12.902;2022-12-18T19:21:00;14.87;;;4.83;;
20846;SDS011;10584;50.854;12.902;2022-12-18T19:26:33;15.37;;;5.80;;
20846;SDS011;10584;50.854;12.902;2022-12-18T19:32:03;14.27;;;5.43;;
20846;SDS011;10584;50.854;12.902;2022-12-18T19:37:19;12.37;;;4.50;;
20846;SDS011;10584;50.854;12.902;2022-12-18T19:42:38;14.63;;;5.07;;
20846;SDS011;10584;50.854;12.902;2022-12-18T19:47:56;12.27;;;4.53;;
20846;SDS011;10584;50.854;12.902;2022-12-18T19:53:08;12.43;;;4.43;;
20846;SDS011;10584;50.854;12.902;2022-12-18T19:58:24;10.73;;;4.10;;
20846;SDS011;10584;50.854;12.902;2022-12-18T20:03:43;9.00;;;3.43;;
20846;SDS011;10584;50.854;12.902;2022-12-18T20:09:25;9.93;;;3.53;;
20846;SDS011;10584;50.854;12.902;2022-12-18T20:15:03;13.20;;;3.90;;
20846;SDS011;10584;50.854;12.902;2022-12-18T20:20:19;10.43;;;3.73;;
20846;SDS011;10584;50.854;12.902;2022-12-18T20:25:23;10.90;;;4.23;;
20846;SDS011;10584;50.854;12.902;2022-12-18T20:30:27;8.87;;;2.90;;
20846;SDS011;10584;50.854;12.902;2022-12-18T20:35:31;21.90;;;6.53;;
20846;SDS011;10584;50.854;12.902;2022-12-18T20:40:35;6.20;;;2.70;;
20846;SDS011;10584;50.854;12.902;2022-12-18T20:45:41;8.50;;;3.73;;
20846;SDS011;10584;50.854;12.902;2022-12-18T20:51:05;10.43;;;4.40;;
20846;SDS011;10584;50.854;12.902;2022-12-18T20:56:25;8.93;;;3.60;;
20846;SDS011;10584;50.854;12.902;2022-12-18T21:01:59;9.80;;;3.37;;
20846;SDS011;10584;50.854;12.902;2022-12-18T21:07:20;10.27;;;4.10;;
20846;SDS011;10584;50.854;12.902;2022-12-18T21:12:33;9.60;;;3.60;;
20846;SDS011;10584;50.854;12.902;2022-12-18T21:18:08;9.30;;;3.70;;
20846;SDS011;10584;50.854;12.902;2022-12-18T21:23:25;99.00;;;38.17;;
20846;SDS011;10584;50.854;12.902;2022-12-18T21:28:36;14.07;;;6.10;;
20846;SDS011;10584;50.854;12.902;2022-12-18T21:33:58;12.17;;;4.50;;
20846;SDS011;10584;50.854;12.902;2022-12-18T21:39:10;6.87;;;2.60;;
20846;SDS011;10584;50.854;12.902;2022-12-18T21:44:21;9.03;;;2.90;;
20846;SDS011;10584;50.854;12.902;2022-12-18T21:49:25;9.93;;;3.20;;
20846;SDS011;10584;50.854;12.902;2022-12-18T21:54:28;8.67;;;3.20;;
20846;SDS011;10584;50.854;12.902;2022-12-18T21:59:33;8.43;;;3.30;;
20846;SDS011;10584;50.854;12.902;2022-12-18T22:04:40;8.03;;;3.33;;
20846;SDS011;10584;50.854;12.902;2022-12-18T22:09:55;13.13;;;3.30;;
20846;SDS011;10584;50.854;12.902;2022-12-18T22:15:00;8.30;;;3.07;;
20846;SDS011;10584;50.854;12.902;2022-12-18T22:20:05;7.73;;;3.27;;
20846;SDS011;10584;50.854;12.902;2022-12-18T22:25:10;8.30;;;3.30;;
20846;SDS011;10584;50.854;12.902;2022-12-18T22:30:13;7.20;;;3.23;;
20846;SDS011;10584;50.854;12.902;2022-12-18T22:35:16;7.03;;;2.93;;
20846;SDS011;10584;50.854;12.902;2022-12-18T22:40:20;9.50;;;3.60;;
20846;SDS011;10584;50.854;12.902;2022-12-18T22:45:27;7.97;;;3.33;;
20846;SDS011;10584;50.854;12.902;2022-12-18T22:50:30;11.37;;;3.10;;
20846;SDS011;10584;50.854;12.902;2022-12-18T22:55:34;8.40;;;3.60;;
20846;SDS011;10584;50.854;12.902;2022-12-18T23:00:37;9.17;;;3.77;;
20846;SDS011;10584;50.854;12.902;2022-12-18T23:05:42;8.57;;;3.40;;
20846;SDS011;10584;50.854;12.902;2022-12-18T23:11:15;8.07;;;3.00;;
20846;SDS011;10584;50.854;12.902;2022-12-18T23:16:30;10.70;;;3.70;;
20846;SDS011;10584;50.854;12.902;2022-12-18T23:21:54;8.57;;;3.87;;
20846;SDS011;10584;50.854;12.902;2022-12-18T23:27:17;9.67;;;4.00;;
20846;SDS011;10584;50.854;12.902;2022-12-18T23:32:40;9.53;;;4.00;;
20846;SDS011;10584;50.854;12.902;2022-12-18T23:38:08;9.37;;;3.80;;
20846;SDS011;10584;50.854;12.902;2022-12-18T23:43:36;9.80;;;3.83;;
20846;SDS011;10584;50.854;12.902;2022-12-18T23:48:52;13.53;;;4.67;;
20846;SDS011;10584;50.854;12.902;2022-12-18T23:54:02;13.47;;;4.87;;
20846;SDS011;10584;50.854;12.902;2022-12-18T23:59:12;8.20;;;3.33;;
